Terminal Aerodrome Forecast
Issued by NWS Wakefield, VA

Home | Current Version | Previous Version | Text Only | Print | Product List | Glossary On
Versions: 1 2 3 4 5 6 7 8 9 10 11 12 13 14 15 16 17 18 19
000
FTUS41 KAKQ 191100
TAFECG
TAF
KECG 191130Z 1912/2012 01009KT P6SM -RA SCT007 BKN060 OVC100
     FM191400 04012G20KT 6SM -RA OVC012
     FM192300 04017KT P6SM OVC020=

USA.gov is the U.S. government's official web portal to all federal, state and local government web resources and services.